createdAt,value
2018-11-05T00:01:31.670Z,12.50
2018-11-05T00:03:59.770Z,12.50
2018-11-05T00:06:27.875Z,12.50
2018-11-05T00:08:55.949Z,12.40
2018-11-05T00:11:24.042Z,12.30
2018-11-05T00:13:52.113Z,12.30
2018-11-05T00:16:20.428Z,12.30
2018-11-05T00:18:48.556Z,12.30
2018-11-05T00:21:16.638Z,12.20
2018-11-05T00:23:46.320Z,12.20
2018-11-05T00:26:14.441Z,12.10
2018-11-05T00:28:42.559Z,12.10
2018-11-05T00:31:10.640Z,12.10
2018-11-05T00:33:38.753Z,12.10
2018-11-05T00:36:06.948Z,12.20
2018-11-05T00:38:35.027Z,12.00
2018-11-05T00:41:03.162Z,12.00
2018-11-05T00:43:31.600Z,12.00
2018-11-05T00:45:59.712Z,12.00
2018-11-05T00:48:27.814Z,12.00
2018-11-05T00:50:55.916Z,12.00
2018-11-05T00:53:24.000Z,11.90
2018-11-05T00:55:52.107Z,11.90
2018-11-05T00:58:20.259Z,11.80
2018-11-05T01:00:48.456Z,11.80
2018-11-05T01:03:16.534Z,11.80
2018-11-05T01:05:44.638Z,11.80
2018-11-05T01:08:12.711Z,11.80
2018-11-05T01:10:40.847Z,11.90
2018-11-05T01:13:08.935Z,11.90
2018-11-05T01:15:37.050Z,11.80
2018-11-05T01:18:05.163Z,11.80
2018-11-05T01:20:33.256Z,11.70
2018-11-05T01:23:01.416Z,11.70
2018-11-05T01:25:29.514Z,11.70
2018-11-05T01:27:57.605Z,11.70
2018-11-05T01:30:26.472Z,11.70
2018-11-05T01:32:54.553Z,11.70
2018-11-05T01:35:22.645Z,11.70
2018-11-05T01:37:50.742Z,11.80
2018-11-05T01:40:18.825Z,11.80
2018-11-05T01:42:46.955Z,11.80
2018-11-05T01:45:15.832Z,11.80
2018-11-05T01:47:44.745Z,11.70
2018-11-05T01:50:14.332Z,11.70
2018-11-05T01:52:43.129Z,11.70
2018-11-05T01:55:11.293Z,11.70
2018-11-05T01:57:40.112Z,11.70
2018-11-05T02:00:10.180Z,11.70
2018-11-05T02:02:38.355Z,11.70
2018-11-05T02:05:07.178Z,11.60
2018-11-05T02:07:35.681Z,11.70
2018-11-05T02:10:05.674Z,11.70
2018-11-05T02:12:33.696Z,11.70
2018-11-05T02:15:01.808Z,11.60
2018-11-05T02:17:29.940Z,11.60
2018-11-05T02:19:58.077Z,11.60
2018-11-05T02:22:26.271Z,11.70
2018-11-05T02:24:54.366Z,11.60
2018-11-05T02:27:22.537Z,11.60
2018-11-05T02:29:50.742Z,11.50
2018-11-05T02:32:18.841Z,11.60
2018-11-05T02:34:46.928Z,11.60
2018-11-05T02:37:15.010Z,11.60
2018-11-05T02:39:43.093Z,11.60
2018-11-05T02:42:11.427Z,11.70
2018-11-05T02:44:39.534Z,11.70
2018-11-05T02:47:07.652Z,11.70
2018-11-05T02:49:35.757Z,11.70
2018-11-05T02:52:03.868Z,11.80
2018-11-05T02:54:31.940Z,11.80
2018-11-05T02:57:00.029Z,11.80
2018-11-05T02:59:28.125Z,11.70
2018-11-05T03:01:56.185Z,11.70
2018-11-05T03:04:24.492Z,11.80
2018-11-05T03:06:52.666Z,11.80
2018-11-05T03:09:20.728Z,11.90
2018-11-05T03:11:49.028Z,11.90
2018-11-05T03:14:17.119Z,12.00
2018-11-05T03:16:45.658Z,12.00
2018-11-05T03:19:13.700Z,12.10
2018-11-05T03:21:41.800Z,12.10
2018-11-05T03:24:09.900Z,12.20
2018-11-05T03:26:38.276Z,12.10
2018-11-05T03:29:06.488Z,12.10
2018-11-05T03:31:34.608Z,12.10
2018-11-05T03:34:02.750Z,12.10
2018-11-05T03:36:31.097Z,12.20
2018-11-05T03:38:59.710Z,12.20
2018-11-05T03:41:27.807Z,12.10
2018-11-05T03:43:55.913Z,12.10
2018-11-05T03:46:24.045Z,12.10
2018-11-05T03:48:52.152Z,12.10
2018-11-05T03:51:20.244Z,12.20
2018-11-05T03:53:48.450Z,12.20
2018-11-05T03:56:17.110Z,12.10
2018-11-05T03:58:45.028Z,12.10
2018-11-05T04:01:13.132Z,12.10
2018-11-05T04:03:41.260Z,12.20
2018-11-05T04:06:09.346Z,12.10
2018-11-05T04:08:37.681Z,12.10
2018-11-05T04:11:05.807Z,12.10
2018-11-05T04:13:34.099Z,12.00
2018-11-05T04:16:02.448Z,12.10
2018-11-05T04:18:30.740Z,12.10
2018-11-05T04:20:58.861Z,12.10
2018-11-05T04:23:26.959Z,12.20
2018-11-05T04:25:55.059Z,12.30
2018-11-05T04:28:23.156Z,12.30
2018-11-05T04:30:51.258Z,12.40
2018-11-05T04:33:19.719Z,12.30
2018-11-05T04:35:47.873Z,12.40
2018-11-05T04:38:15.981Z,12.50
2018-11-05T04:40:44.061Z,12.50
2018-11-05T04:43:12.152Z,12.40
2018-11-05T04:45:40.321Z,12.40
2018-11-05T04:48:08.791Z,12.30
2018-11-05T04:50:36.873Z,12.40
2018-11-05T04:53:05.868Z,12.40
2018-11-05T04:55:33.955Z,12.50
2018-11-05T04:58:02.321Z,12.50
2018-11-05T05:00:30.854Z,12.50
2018-11-05T05:02:58.961Z,12.50
2018-11-05T05:05:27.221Z,12.50
2018-11-05T05:07:55.342Z,12.50
2018-11-05T05:10:23.436Z,12.50
2018-11-05T05:12:51.620Z,12.50
2018-11-05T05:15:19.743Z,12.60
2018-11-05T05:17:48.251Z,12.60
2018-11-05T05:20:16.980Z,12.60
2018-11-05T05:22:45.451Z,12.40
2018-11-05T05:25:13.616Z,12.40
2018-11-05T05:27:41.708Z,12.30
2018-11-05T05:30:11.807Z,12.30
2018-11-05T05:32:58.322Z,12.10
2018-11-05T05:35:26.714Z,12.20
2018-11-05T05:37:54.831Z,12.10
2018-11-05T05:40:22.964Z,12.00
2018-11-05T05:42:51.096Z,11.90
2018-11-05T05:45:19.212Z,11.70
2018-11-05T05:47:47.324Z,11.60
2018-11-05T05:50:16.586Z,11.50
2018-11-05T05:52:46.008Z,11.30
2018-11-05T05:55:14.294Z,11.20
2018-11-05T05:57:42.817Z,11.00
2018-11-05T06:00:12.860Z,10.90
2018-11-05T06:02:41.024Z,10.80
2018-11-05T06:05:10.499Z,10.70
2018-11-05T06:07:39.179Z,10.60
2018-11-05T06:10:07.646Z,10.50
2018-11-05T06:12:35.748Z,10.40
2018-11-05T06:15:03.908Z,10.30
2018-11-05T06:17:32.081Z,10.30
2018-11-05T06:20:00.197Z,10.20
2018-11-05T06:22:28.320Z,10.20
2018-11-05T06:24:56.504Z,10.20
2018-11-05T06:27:24.627Z,10.10
2018-11-05T06:29:52.729Z,10.10
2018-11-05T06:32:20.852Z,10.00
2018-11-05T06:34:48.999Z,10.00
2018-11-05T06:37:17.181Z,9.90
2018-11-05T06:39:45.304Z,10.00
2018-11-05T06:42:13.393Z,10.00
2018-11-05T06:44:41.527Z,10.00
2018-11-05T06:47:09.668Z,10.00
2018-11-05T06:49:38.007Z,10.00
2018-11-05T06:52:06.355Z,10.00
2018-11-05T06:54:34.547Z,9.60
2018-11-05T06:57:02.784Z,9.80
2018-11-05T06:59:30.948Z,10.00
2018-11-05T07:01:59.036Z,10.10
2018-11-05T07:04:27.164Z,10.20
2018-11-05T07:06:55.268Z,10.40
2018-11-05T07:09:23.387Z,10.50
2018-11-05T07:11:51.495Z,10.60
2018-11-05T07:14:19.592Z,10.70
2018-11-05T07:16:47.696Z,10.80
2018-11-05T07:19:17.351Z,10.90
2018-11-05T07:21:45.176Z,11.00
2018-11-05T07:24:13.270Z,11.10
2018-11-05T07:26:41.483Z,11.20
2018-11-05T07:29:09.491Z,11.20
2018-11-05T07:31:37.577Z,11.30
2018-11-05T07:34:05.985Z,11.40
2018-11-05T07:36:33.764Z,11.40
2018-11-05T07:39:01.903Z,11.50
2018-11-05T07:41:30.180Z,11.60
2018-11-05T07:43:58.453Z,11.70
2018-11-05T07:46:27.060Z,11.90
2018-11-05T07:48:55.165Z,12.00
2018-11-05T07:51:23.257Z,12.20
2018-11-05T07:53:51.479Z,12.40
2018-11-05T07:56:19.639Z,12.60
2018-11-05T07:58:47.689Z,12.80
2018-11-05T08:01:15.831Z,13.30
2018-11-05T08:03:43.980Z,14.20
2018-11-05T08:06:12.091Z,15.20
2018-11-05T08:08:40.302Z,16.20
2018-11-05T08:11:08.553Z,16.70
2018-11-05T08:13:36.831Z,17.60
2018-11-05T08:16:05.220Z,18.60
2018-11-05T08:18:33.320Z,19.70
2018-11-05T08:21:01.436Z,20.70
2018-11-05T08:23:29.572Z,21.80
2018-11-05T08:25:57.691Z,22.60
2018-11-05T08:28:25.820Z,23.30
2018-11-05T08:30:53.969Z,23.90
2018-11-05T08:33:22.113Z,24.30
2018-11-05T08:35:50.267Z,24.20
2018-11-05T08:38:18.396Z,24.60
2018-11-05T08:40:46.519Z,25.00
2018-11-05T08:43:14.668Z,25.10
2018-11-05T08:45:42.817Z,25.10
2018-11-05T08:48:10.921Z,25.40
2018-11-05T08:50:39.076Z,25.90
2018-11-05T08:53:07.210Z,26.30
2018-11-05T08:55:35.348Z,26.80
2018-11-05T08:58:03.493Z,27.20
2018-11-05T09:00:37.007Z,27.30
2018-11-05T09:03:05.784Z,27.50
2018-11-05T09:05:33.871Z,27.70
2018-11-05T09:08:02.016Z,27.90
2018-11-05T09:10:30.286Z,28.20
2018-11-05T09:12:58.280Z,28.50
2018-11-05T09:15:27.360Z,29.00
2018-11-05T09:17:55.468Z,29.30
2018-11-05T09:20:23.581Z,29.50
2018-11-05T09:22:52.155Z,29.50
2018-11-05T09:25:20.316Z,29.80
2018-11-05T09:27:48.455Z,30.00
2018-11-05T09:30:18.877Z,30.00
2018-11-05T09:32:47.330Z,30.10
2018-11-05T09:35:15.580Z,29.90
2018-11-05T09:37:43.731Z,29.60
2018-11-05T09:40:14.256Z,29.30
2018-11-05T09:42:42.954Z,29.00
2018-11-05T09:45:13.968Z,28.80
2018-11-05T09:47:42.532Z,28.60
2018-11-05T09:50:11.151Z,28.40
2018-11-05T09:52:39.396Z,28.50
2018-11-05T09:55:08.284Z,28.90
2018-11-05T09:57:36.426Z,29.40
2018-11-05T10:00:05.890Z,30.20
2018-11-05T10:02:39.412Z,30.70
2018-11-05T10:05:07.628Z,30.70
2018-11-05T10:07:35.602Z,30.10
2018-11-05T10:10:03.868Z,29.10
2018-11-05T10:12:31.892Z,28.20
2018-11-05T10:14:59.984Z,27.40
2018-11-05T10:17:28.081Z,27.20
2018-11-05T10:19:56.233Z,27.40
2018-11-05T10:22:24.363Z,28.00
2018-11-05T10:24:52.587Z,28.40
2018-11-05T10:27:20.580Z,29.00
2018-11-05T10:29:48.675Z,29.50
2018-11-05T10:32:16.856Z,29.90
2018-11-05T10:34:44.973Z,30.10
2018-11-05T10:37:13.065Z,30.10
2018-11-05T10:39:41.240Z,29.80
2018-11-05T10:42:09.467Z,29.60
2018-11-05T10:44:37.548Z,29.40
2018-11-05T10:47:05.707Z,29.30
2018-11-05T10:49:33.909Z,29.30
2018-11-05T10:54:36.680Z,29.50
2018-11-05T10:57:05.027Z,30.20
2018-11-05T10:59:33.148Z,29.80
2018-11-05T11:02:06.579Z,29.80
2018-11-05T11:04:35.905Z,29.70
2018-11-05T11:07:04.739Z,29.30
2018-11-05T11:09:32.958Z,29.40
2018-11-05T11:12:01.232Z,29.30
2018-11-05T11:14:30.060Z,29.90
2018-11-05T11:16:58.194Z,29.90
2018-11-05T11:19:26.401Z,30.30
2018-11-05T11:21:54.565Z,30.50
2018-11-05T11:24:22.730Z,30.70
2018-11-05T11:26:50.885Z,30.70
2018-11-05T11:29:19.145Z,30.70
2018-11-05T11:31:47.090Z,30.70
2018-11-05T11:34:15.200Z,30.50
2018-11-05T11:36:43.434Z,30.10
2018-11-05T11:39:12.280Z,29.90
2018-11-05T11:41:42.324Z,30.00
2018-11-05T11:44:10.538Z,30.10
2018-11-05T11:46:38.667Z,30.30
2018-11-05T11:49:07.832Z,30.10
2018-11-05T11:51:35.944Z,30.10
2018-11-05T11:54:04.086Z,29.90
2018-11-05T11:56:32.248Z,30.00
2018-11-05T11:59:00.368Z,30.20
2018-11-05T12:01:28.484Z,30.30
2018-11-05T12:03:56.577Z,30.10
2018-11-05T12:06:24.756Z,29.80
2018-11-05T12:08:52.912Z,29.60
2018-11-05T12:11:21.004Z,29.50
2018-11-05T12:13:49.124Z,29.00
2018-11-05T12:16:17.282Z,28.50
2018-11-05T12:18:45.392Z,28.10
2018-11-05T12:21:13.516Z,27.60
2018-11-05T12:23:41.617Z,27.10
2018-11-05T12:26:09.708Z,26.50
2018-11-05T12:28:37.863Z,26.50
2018-11-05T12:31:06.188Z,26.90
2018-11-05T12:33:34.305Z,27.20
2018-11-05T12:36:02.464Z,27.50
2018-11-05T12:38:30.578Z,27.60
2018-11-05T12:40:58.688Z,27.90
2018-11-05T12:43:26.835Z,28.10
2018-11-05T12:45:54.944Z,28.20
2018-11-05T12:48:23.052Z,28.50
2018-11-05T12:50:51.204Z,28.80
2018-11-05T12:53:19.315Z,29.30
2018-11-05T12:55:47.395Z,29.30
2018-11-05T12:58:15.484Z,29.20
2018-11-05T13:00:43.634Z,29.30
2018-11-05T13:03:11.791Z,29.20
2018-11-05T13:05:39.903Z,28.90
2018-11-05T13:08:08.029Z,28.40
2018-11-05T13:10:36.179Z,28.00
2018-11-05T13:13:04.534Z,27.60
2018-11-05T13:15:32.559Z,27.30
2018-11-05T13:18:00.682Z,27.00
2018-11-05T13:20:28.816Z,27.00
2018-11-05T13:22:56.919Z,26.90
2018-11-05T13:25:25.023Z,27.10
2018-11-05T13:27:53.156Z,27.10
2018-11-05T13:30:21.302Z,26.90
2018-11-05T13:32:49.416Z,26.70
2018-11-05T13:35:18.748Z,26.40
2018-11-05T13:37:47.368Z,26.10
2018-11-05T13:40:16.303Z,25.90
2018-11-05T13:42:44.861Z,25.60
2018-11-05T13:45:13.685Z,25.50
2018-11-05T13:47:42.376Z,25.50
2018-11-05T13:50:11.043Z,25.30
2018-11-05T13:52:39.306Z,25.30
2018-11-05T13:55:08.811Z,25.10
2018-11-05T13:57:36.924Z,24.90
2018-11-05T14:00:07.060Z,24.70
2018-11-05T14:02:35.159Z,24.50
2018-11-05T14:05:03.307Z,24.50
2018-11-05T14:07:31.454Z,24.40
2018-11-05T14:09:59.556Z,24.30
2018-11-05T14:12:27.699Z,24.10
2018-11-05T14:14:55.781Z,23.70
2018-11-05T14:17:23.869Z,23.50
2018-11-05T14:19:51.959Z,23.10
2018-11-05T14:22:20.052Z,22.90
2018-11-05T14:24:48.167Z,22.70
2018-11-05T14:27:16.285Z,22.50
2018-11-05T14:32:12.250Z,22.30
2018-11-05T14:34:40.292Z,22.00
2018-11-05T14:37:08.464Z,21.60
2018-11-05T14:39:36.545Z,21.60
2018-11-05T14:42:04.793Z,21.50
2018-11-05T14:44:32.901Z,21.20
2018-11-05T14:47:01.039Z,21.20
2018-11-05T14:49:29.180Z,20.90
2018-11-05T14:51:57.476Z,20.90
2018-11-05T14:54:25.619Z,20.90
2018-11-05T14:56:53.736Z,20.70
2018-11-05T14:59:21.828Z,20.70
2018-11-05T15:01:54.184Z,20.60
2018-11-05T15:04:22.352Z,20.50
2018-11-05T15:06:50.477Z,20.40
2018-11-05T15:09:18.580Z,20.40
2018-11-05T15:11:46.776Z,20.30
2018-11-05T15:14:14.881Z,20.30
2018-11-05T15:16:42.975Z,20.30
2018-11-05T15:19:11.487Z,20.20
2018-11-05T15:21:39.202Z,20.10
2018-11-05T15:24:07.529Z,20.10
2018-11-05T15:26:35.790Z,19.90
2018-11-05T15:29:03.783Z,19.80
2018-11-05T15:31:31.884Z,19.70
2018-11-05T15:34:00.190Z,19.60
2018-11-05T15:36:28.176Z,19.40
2018-11-05T15:38:56.701Z,19.30
2018-11-05T15:41:24.962Z,19.20
2018-11-05T15:43:53.096Z,19.10
2018-11-05T15:46:21.200Z,19.00
2018-11-05T15:48:49.300Z,18.90
2018-11-05T15:51:17.649Z,18.90
2018-11-05T15:53:45.655Z,18.90
2018-11-05T15:56:13.865Z,18.70
2018-11-05T15:58:42.125Z,18.60
2018-11-05T16:01:10.371Z,18.60
2018-11-05T16:13:30.009Z,18.40
2018-11-05T16:15:58.182Z,18.50
2018-11-05T16:18:26.383Z,18.40
2018-11-05T16:35:42.204Z,18.10
2018-11-05T16:43:05.985Z,18.00
2018-11-05T16:48:08.493Z,18.00
2018-11-05T16:50:36.566Z,18.00
2018-11-05T16:53:04.730Z,17.90
2018-11-05T16:55:32.862Z,18.00
2018-11-05T16:58:01.054Z,18.00
2018-11-05T17:00:29.339Z,17.90
2018-11-05T17:02:57.491Z,17.90
2018-11-05T17:05:25.588Z,17.80
2018-11-05T17:07:53.673Z,17.80
2018-11-05T17:12:49.646Z,17.80
2018-11-05T17:17:46.040Z,17.70
2018-11-05T17:20:15.420Z,17.60
2018-11-05T17:22:44.031Z,17.50
2018-11-05T17:25:12.700Z,17.40
2018-11-05T17:30:17.552Z,17.30
2018-11-05T17:32:45.732Z,17.30
2018-11-05T17:42:40.456Z,17.20
2018-11-05T17:45:10.209Z,17.10
2018-11-05T17:47:38.556Z,17.00
2018-11-05T17:50:09.007Z,17.00
2018-11-05T18:04:57.316Z,16.70
2018-11-05T18:12:22.882Z,16.70
2018-11-05T18:14:50.979Z,16.70
2018-11-05T18:17:19.092Z,16.80
2018-11-05T18:19:47.196Z,16.70
2018-11-05T18:22:15.301Z,16.80
2018-11-05T18:24:43.470Z,16.70
2018-11-05T18:27:11.587Z,16.70
2018-11-05T18:29:39.731Z,16.70
2018-11-05T18:32:07.852Z,16.60
2018-11-05T18:34:36.036Z,16.70
2018-11-05T18:37:04.176Z,16.70
2018-11-05T18:39:32.277Z,16.70
2018-11-05T18:42:00.680Z,16.70
2018-11-05T18:44:28.833Z,16.70
2018-11-05T18:46:56.923Z,16.60
2018-11-05T18:49:25.040Z,16.50
2018-11-05T18:51:53.277Z,16.50
2018-11-05T18:54:21.503Z,16.40
2018-11-05T18:56:49.622Z,16.40
2018-11-05T18:59:17.741Z,16.40
2018-11-05T19:01:45.853Z,16.50
2018-11-05T19:04:13.941Z,16.50
2018-11-05T19:09:10.164Z,16.30
2018-11-05T19:11:38.254Z,16.30
2018-11-05T19:14:06.424Z,16.40
2018-11-05T19:16:34.551Z,16.40
2018-11-05T19:19:02.664Z,16.30
2018-11-05T19:21:30.804Z,16.30
2018-11-05T19:23:59.021Z,16.30
2018-11-05T19:26:27.062Z,16.20
2018-11-05T19:28:55.152Z,16.20
2018-11-05T19:31:23.279Z,16.20
2018-11-05T19:33:51.475Z,16.10
2018-11-05T19:36:19.614Z,16.20
2018-11-05T19:38:47.763Z,16.20
2018-11-05T19:41:15.861Z,16.10
2018-11-05T19:43:44.108Z,16.10
2018-11-05T19:46:12.247Z,16.10
2018-11-05T19:48:40.377Z,16.10
2018-11-05T19:51:08.487Z,16.00
2018-11-05T19:53:43.384Z,16.00
2018-11-05T19:56:11.501Z,15.90
2018-11-05T19:58:39.531Z,15.90
2018-11-05T20:01:07.676Z,15.90
2018-11-05T20:03:35.853Z,15.90
2018-11-05T20:06:04.244Z,15.80
2018-11-05T20:08:32.420Z,15.80
2018-11-05T20:11:00.702Z,15.70
2018-11-05T20:13:28.931Z,15.70
2018-11-05T20:15:57.066Z,15.60
2018-11-05T20:18:25.229Z,15.50
2018-11-05T20:20:53.315Z,15.50
2018-11-05T20:23:21.449Z,15.50
2018-11-05T20:25:49.826Z,15.50
2018-11-05T20:28:18.310Z,15.40
2018-11-05T20:30:46.717Z,15.50
2018-11-05T20:33:15.016Z,15.40
2018-11-05T20:35:45.008Z,15.40
2018-11-05T20:38:13.153Z,15.40
2018-11-05T20:40:41.255Z,15.40
2018-11-05T20:43:09.348Z,15.30
2018-11-05T20:45:37.487Z,15.30
2018-11-05T20:48:12.421Z,15.30
2018-11-05T20:50:40.511Z,15.40
2018-11-05T20:53:08.603Z,15.40
2018-11-05T20:55:36.708Z,15.30
2018-11-05T20:58:05.102Z,15.30
2018-11-05T21:00:33.468Z,15.40
2018-11-05T21:03:01.750Z,15.30
2018-11-05T21:05:30.052Z,15.30
2018-11-05T21:07:58.369Z,15.30
2018-11-05T21:10:26.467Z,15.30
2018-11-05T21:12:54.593Z,15.30
2018-11-05T21:15:23.112Z,15.20
2018-11-05T21:17:52.192Z,15.20
2018-11-05T21:20:20.282Z,15.20
2018-11-05T21:22:49.106Z,15.20
2018-11-05T21:25:17.028Z,15.10
2018-11-05T21:27:45.406Z,15.10
2018-11-05T21:32:43.266Z,15.10
